LEAMLEBG

Guest
Details From LEAM - Almeria
To LEBG - Burgos
Flight Number -
Tags decoded
Created
Modified
Stats Distance 368 nm / 681 km
Max Altitude 0 ft / 0 m
Waypoints 6
Social Downloads 0
Likes 0
Share VATSIM

Download

Looking for another format? Having issues loading an existing format? Contact us
Advertisement - Login to hide

Notes

Requested: LEAM YES CJN PINAR AMGAR LEBG

Route

LEAM YES CJN PINAR AMGAR LEBG

ID Type Via Altitude Latitude Longitude Leg Dist Tot Dist Heading (true) Name
O LEAM APT - 0 ft / 0 m 36.84393˚ -2.37010˚ - 0 nm - Almeria
YES VOR - 0 ft / 0 m 38.36078˚ -2.35275˚ 91 nm 91 nm 1° / 1° YESTE VOR-DME
CJN VOR - 0 ft / 0 m 40.37196˚ -2.54461˚ 121 nm 212 nm 356° / 356° CASTEJON VOR-DME
PINAR FIX - 0 ft / 0 m 40.98029˚ -2.59917˚ 36 nm 248 nm 356° / 356° -
AMGAR FIX - 0 ft / 0 m 42.55500˚ -3.25338˚ 99 nm 347 nm 343° / 343° -
O LEBG APT - 0 ft / 0 m 42.35689˚ -3.61422˚ 19 nm 367 nm 233° / 233° Burgos

Altitude Profile

Advertisement - Login to hide

Weather


0- 5 10 15 20 25 30 35+ Temperature / ° C

Clouds and Precipitation
Forecast for 2017-12-14 18:00 UTC. Updated 3 minutes ago

Ground ~20,000 ft ~40,000 ft Winds

LEAM

Details ICAO LEAM (LEI)
Name Almeria
Region Spain
Timezone Unknown (UTC+0.0)
Stats Elevation 70 ft / 21 m (AMSL)
Location 36.843935° -2.370097°
Runways 1
Magnetic Variation 0.288° W

METAR

LEAM 141700Z 23010KT CAVOK 14/11 Q1018

Decode

TAF

TAF LEAM 141400Z 1415/1515 22010KT CAVOK TX18/1513Z TN09/1507Z BECMG 1417/1419 34003KT

Decode

Departure Runways

ID Width Length Bearing (true) Bearing (mag) Surface Threshold Offset Overrun Length
08 148 ft / 45 m 10,484 ft / 3,196 m 72.94° 73.23° Asphalt 492 ft / 150 m 191 ft / 58 m
26 148 ft / 45 m 10,484 ft / 3,196 m 252.96° 253.25° Asphalt 0 ft / 0 m 150 ft / 46 m

LEBG

Details ICAO LEBG (RGS)
Name Burgos
Region Spain
Timezone Europe/Madrid (UTC+1.0)
Stats Elevation 2,961 ft / 903 m (AMSL)
Location 42.356895° -3.614221°
Runways 1
Magnetic Variation 0.787° W

METAR

LEBG 141700Z 22012KT 200V260 8000 -RA SCT009 SCT015 10/09 Q1013

Decode

TAF

Not found

Destination Runways

ID Width Length Bearing (true) Bearing (mag) Surface Threshold Offset Overrun Length
04 148 ft / 45 m 6,423 ft / 1,958 m 43.31° 44.10° Asphalt 0 ft / 0 m 0 ft / 0 m
22 148 ft / 45 m 6,423 ft / 1,958 m 223.32° 224.11° Asphalt 0 ft / 0 m 0 ft / 0 m

Popular Alternatives